Dresden, Missouri
Current Conditions -  °F | °C
As of 12:53 AM on Sunday 23 Nov 2014 (Local Time) from KDMO Reporting Station
Clear Clear  
Wind Chill: 55°   Ceiling: Unl
Heat Index: 55°   Visibility: 10mi
Dew Point: 50°   Wind: 16mph
Humidity: 83%   Direction: 170°S
Pressure: 29.72"   Gusts: NA
Location:  38.6763°N, 93.2612°W
Report Text: KDMO 230653Z AUTO 17014KT 10SM CLR 13/10 A2972 RMK AO2 SLP060 T01280100
Loading
Personal Weather Stations






























Interactive Weather Map New forecast layout! Learn more

10-Day Weather Forecast

Advertisements
Track Severe Weather on mobile